sensor_id;sensor_type;location;lat;lon;timestamp;pressure;altitude;pressure_sealevel;temperature;humidity
71907;BME280;59781;52.090;5.030;2023-02-01T00:02:06;101904.09;;;5.50;83.58
71907;BME280;59781;52.090;5.030;2023-02-01T00:04:32;101901.91;;;5.67;83.32
71907;BME280;59781;52.090;5.030;2023-02-01T00:06:58;101905.31;;;5.69;83.33
71907;BME280;59781;52.090;5.030;2023-02-01T00:09:23;101896.22;;;5.72;84.04
71907;BME280;59781;52.090;5.030;2023-02-01T00:11:49;101901.38;;;5.86;83.45
71907;BME280;59781;52.090;5.030;2023-02-01T00:14:15;101907.81;;;5.84;83.62
71907;BME280;59781;52.090;5.030;2023-02-01T00:16:41;101904.78;;;5.88;83.61
71907;BME280;59781;52.090;5.030;2023-02-01T00:19:11;101899.97;;;6.28;81.61
71907;BME280;59781;52.090;5.030;2023-02-01T00:21:40;101903.53;;;5.94;83.54
71907;BME280;59781;52.090;5.030;2023-02-01T00:24:08;101897.84;;;5.86;83.11
71907;BME280;59781;52.090;5.030;2023-02-01T00:26:38;101907.09;;;6.06;82.39
71907;BME280;59781;52.090;5.030;2023-02-01T00:29:11;101909.19;;;6.13;81.59
71907;BME280;59781;52.090;5.030;2023-02-01T00:31:43;101900.03;;;6.40;80.92
71907;BME280;59781;52.090;5.030;2023-02-01T00:34:15;101892.16;;;6.49;79.96
71907;BME280;59781;52.090;5.030;2023-02-01T00:36:42;101891.50;;;6.35;79.99
71907;BME280;59781;52.090;5.030;2023-02-01T00:39:10;101899.22;;;6.15;80.65
71907;BME280;59781;52.090;5.030;2023-02-01T00:41:36;101896.56;;;6.26;79.95
71907;BME280;59781;52.090;5.030;2023-02-01T00:44:03;101893.28;;;6.23;80.10
71907;BME280;59781;52.090;5.030;2023-02-01T00:46:29;101892.66;;;6.19;79.63
71907;BME280;59781;52.090;5.030;2023-02-01T00:48:56;101890.41;;;6.37;79.50
71907;BME280;59781;52.090;5.030;2023-02-01T00:51:24;101900.63;;;6.32;79.04
71907;BME280;59781;52.090;5.030;2023-02-01T00:53:52;101904.72;;;6.25;79.02
71907;BME280;59781;52.090;5.030;2023-02-01T00:56:19;101892.94;;;6.39;78.36
71907;BME280;59781;52.090;5.030;2023-02-01T00:58:45;101877.25;;;6.23;78.58
71907;BME280;59781;52.090;5.030;2023-02-01T01:01:17;101873.00;;;6.20;78.51
71907;BME280;59781;52.090;5.030;2023-02-01T01:03:48;101879.81;;;6.24;79.06
71907;BME280;59781;52.090;5.030;2023-02-01T01:06:21;101873.44;;;6.14;78.72
71907;BME280;59781;52.090;5.030;2023-02-01T01:08:52;101879.22;;;6.32;77.75
71907;BME280;59781;52.090;5.030;2023-02-01T01:11:22;101874.91;;;6.18;78.83
71907;BME280;59781;52.090;5.030;2023-02-01T01:13:51;101872.28;;;6.29;78.47
71907;BME280;59781;52.090;5.030;2023-02-01T01:16:20;101877.00;;;6.26;77.89
71907;BME280;59781;52.090;5.030;2023-02-01T01:18:48;101881.88;;;6.21;78.50
71907;BME280;59781;52.090;5.030;2023-02-01T01:21:16;101875.28;;;6.14;78.65
71907;BME280;59781;52.090;5.030;2023-02-01T01:23:43;101878.63;;;6.40;78.11
71907;BME280;59781;52.090;5.030;2023-02-01T01:26:15;101876.31;;;6.57;76.93
71907;BME280;59781;52.090;5.030;2023-02-01T01:28:46;101876.16;;;6.37;77.78
71907;BME280;59781;52.090;5.030;2023-02-01T01:31:14;101874.59;;;6.34;77.98
71907;BME280;59781;52.090;5.030;2023-02-01T01:33:43;101875.84;;;6.52;77.87
71907;BME280;59781;52.090;5.030;2023-02-01T01:36:11;101890.41;;;6.37;77.96
71907;BME280;59781;52.090;5.030;2023-02-01T01:38:41;101878.06;;;6.70;76.70
71907;BME280;59781;52.090;5.030;2023-02-01T01:41:12;101882.78;;;6.55;77.91
71907;BME280;59781;52.090;5.030;2023-02-01T01:43:56;101877.44;;;6.55;78.25
71907;BME280;59781;52.090;5.030;2023-02-01T01:46:36;101879.56;;;6.39;79.52
71907;BME280;59781;52.090;5.030;2023-02-01T01:49:20;101877.31;;;6.56;78.40
71907;BME280;59781;52.090;5.030;2023-02-01T01:51:55;101876.00;;;6.84;77.67
71907;BME280;59781;52.090;5.030;2023-02-01T01:54:34;101868.69;;;6.75;78.35
71907;BME280;59781;52.090;5.030;2023-02-01T01:57:21;101865.88;;;6.88;77.89
71907;BME280;59781;52.090;5.030;2023-02-01T02:00:16;101857.13;;;6.75;78.65
71907;BME280;59781;52.090;5.030;2023-02-01T02:02:48;101849.94;;;6.75;79.00
71907;BME280;59781;52.090;5.030;2023-02-01T02:05:22;101845.09;;;6.80;79.33
71907;BME280;59781;52.090;5.030;2023-02-01T02:07:51;101856.41;;;6.84;79.61
71907;BME280;59781;52.090;5.030;2023-02-01T02:10:19;101855.66;;;6.82;79.44
71907;BME280;59781;52.090;5.030;2023-02-01T02:12:48;101855.28;;;6.98;78.96
71907;BME280;59781;52.090;5.030;2023-02-01T02:15:16;101851.75;;;6.75;80.33
71907;BME280;59781;52.090;5.030;2023-02-01T02:18:01;101844.34;;;6.78;80.50
71907;BME280;59781;52.090;5.030;2023-02-01T02:26:52;101830.47;;;6.84;80.54
71907;BME280;59781;52.090;5.030;2023-02-01T02:35:26;101818.06;;;6.72;80.51
71907;BME280;59781;52.090;5.030;2023-02-01T02:38:17;101809.31;;;6.70;80.83
71907;BME280;59781;52.090;5.030;2023-02-01T02:44:08;101813.09;;;6.79;79.97
71907;BME280;59781;52.090;5.030;2023-02-01T02:47:07;101831.56;;;6.82;79.58
71907;BME280;59781;52.090;5.030;2023-02-01T02:53:00;101844.72;;;6.85;79.64
71907;BME280;59781;52.090;5.030;2023-02-01T02:55:59;101820.13;;;6.91;79.87
71907;BME280;59781;52.090;5.030;2023-02-01T02:58:46;101800.16;;;6.84;80.69
71907;BME280;59781;52.090;5.030;2023-02-01T03:01:33;101790.31;;;6.73;80.37
71907;BME280;59781;52.090;5.030;2023-02-01T03:04:17;101794.56;;;6.87;80.12
71907;BME280;59781;52.090;5.030;2023-02-01T03:06:47;101797.34;;;6.97;79.35
71907;BME280;59781;52.090;5.030;2023-02-01T03:09:21;101784.47;;;6.90;79.09
71907;BME280;59781;52.090;5.030;2023-02-01T03:12:01;101794.81;;;6.84;78.97
71907;BME280;59781;52.090;5.030;2023-02-01T03:14:57;101787.38;;;6.87;78.92
71907;BME280;59781;52.090;5.030;2023-02-01T03:17:38;101781.81;;;6.79;78.90
71907;BME280;59781;52.090;5.030;2023-02-01T03:20:10;101782.78;;;6.67;79.39
71907;BME280;59781;52.090;5.030;2023-02-01T03:22:42;101778.66;;;6.63;79.38
71907;BME280;59781;52.090;5.030;2023-02-01T03:25:17;101783.38;;;6.48;80.18
71907;BME280;59781;52.090;5.030;2023-02-01T03:27:57;101783.50;;;6.47;80.20
71907;BME280;59781;52.090;5.030;2023-02-01T03:30:41;101790.22;;;6.52;80.38
71907;BME280;59781;52.090;5.030;2023-02-01T03:33:17;101790.47;;;6.49;80.54
71907;BME280;59781;52.090;5.030;2023-02-01T03:47:11;101808.81;;;6.31;82.10
71907;BME280;59781;52.090;5.030;2023-02-01T03:52:30;101796.88;;;6.47;81.50
71907;BME280;59781;52.090;5.030;2023-02-01T03:55:05;101796.63;;;6.39;81.71
71907;BME280;59781;52.090;5.030;2023-02-01T03:57:38;101794.94;;;6.49;81.24
71907;BME280;59781;52.090;5.030;2023-02-01T04:00:21;101802.16;;;6.59;80.61
71907;BME280;59781;52.090;5.030;2023-02-01T04:02:51;101808.22;;;6.50;81.09
71907;BME280;59781;52.090;5.030;2023-02-01T04:05:18;101815.28;;;6.63;80.28
71907;BME280;59781;52.090;5.030;2023-02-01T04:07:58;101803.97;;;6.70;79.16
71907;BME280;59781;52.090;5.030;2023-02-01T04:10:24;101799.31;;;6.72;79.15
71907;BME280;59781;52.090;5.030;2023-02-01T04:12:50;101796.06;;;6.69;79.00
71907;BME280;59781;52.090;5.030;2023-02-01T04:15:16;101803.13;;;6.70;79.20
71907;BME280;59781;52.090;5.030;2023-02-01T04:17:42;101795.69;;;6.62;79.65
71907;BME280;59781;52.090;5.030;2023-02-01T04:20:08;101796.06;;;6.69;79.71
71907;BME280;59781;52.090;5.030;2023-02-01T04:22:34;101800.78;;;6.76;79.52
71907;BME280;59781;52.090;5.030;2023-02-01T04:25:00;101800.91;;;6.64;79.53
71907;BME280;59781;52.090;5.030;2023-02-01T04:27:27;101799.81;;;6.55;80.20
71907;BME280;59781;52.090;5.030;2023-02-01T04:29:53;101803.09;;;6.58;80.73
71907;BME280;59781;52.090;5.030;2023-02-01T04:32:18;101792.03;;;6.63;80.08
71907;BME280;59781;52.090;5.030;2023-02-01T04:34:45;101785.72;;;6.53;80.32
71907;BME280;59781;52.090;5.030;2023-02-01T04:37:11;101790.69;;;6.46;80.79
71907;BME280;59781;52.090;5.030;2023-02-01T04:39:37;101792.03;;;6.41;80.84
71907;BME280;59781;52.090;5.030;2023-02-01T04:42:03;101781.56;;;6.49;80.55
71907;BME280;59781;52.090;5.030;2023-02-01T04:44:29;101798.25;;;6.52;80.66
71907;BME280;59781;52.090;5.030;2023-02-01T04:46:55;101791.19;;;6.51;80.53
71907;BME280;59781;52.090;5.030;2023-02-01T04:49:20;101793.13;;;6.49;80.55
71907;BME280;59781;52.090;5.030;2023-02-01T04:51:47;101794.34;;;6.45;80.76
71907;BME280;59781;52.090;5.030;2023-02-01T04:54:13;101793.34;;;6.35;81.19
71907;BME280;59781;52.090;5.030;2023-02-01T04:56:39;101789.94;;;6.22;81.35
71907;BME280;59781;52.090;5.030;2023-02-01T04:59:06;101794.94;;;6.38;81.31
71907;BME280;59781;52.090;5.030;2023-02-01T05:01:32;101796.75;;;6.26;81.67
71907;BME280;59781;52.090;5.030;2023-02-01T05:03:58;101784.81;;;6.19;81.82
71907;BME280;59781;52.090;5.030;2023-02-01T05:06:24;101789.56;;;6.26;82.16
71907;BME280;59781;52.090;5.030;2023-02-01T05:08:49;101780.81;;;6.24;82.01
71907;BME280;59781;52.090;5.030;2023-02-01T05:11:15;101774.09;;;6.08;82.54
71907;BME280;59781;52.090;5.030;2023-02-01T05:14:00;101770.59;;;6.07;82.57
71907;BME280;59781;52.090;5.030;2023-02-01T05:16:26;101779.13;;;6.12;82.96
71907;BME280;59781;52.090;5.030;2023-02-01T05:18:53;101782.28;;;6.17;82.47
71907;BME280;59781;52.090;5.030;2023-02-01T05:21:19;101780.09;;;6.22;82.49
71907;BME280;59781;52.090;5.030;2023-02-01T05:23:45;101791.75;;;6.10;82.80
71907;BME280;59781;52.090;5.030;2023-02-01T05:26:29;101804.28;;;6.10;83.01
71907;BME280;59781;52.090;5.030;2023-02-01T05:28:55;101797.69;;;6.02;83.38
71907;BME280;59781;52.090;5.030;2023-02-01T05:31:21;101812.50;;;5.95;84.02
71907;BME280;59781;52.090;5.030;2023-02-01T05:33:47;101806.31;;;6.06;83.71
71907;BME280;59781;52.090;5.030;2023-02-01T05:36:13;101812.66;;;6.16;83.09
71907;BME280;59781;52.090;5.030;2023-02-01T05:38:39;101816.56;;;6.23;82.83
71907;BME280;59781;52.090;5.030;2023-02-01T05:41:06;101792.03;;;6.41;82.28
71907;BME280;59781;52.090;5.030;2023-02-01T05:43:32;101807.97;;;6.31;82.78
71907;BME280;59781;52.090;5.030;2023-02-01T05:45:58;101809.41;;;6.24;83.12
71907;BME280;59781;52.090;5.030;2023-02-01T05:48:23;101810.84;;;6.28;83.34
71907;BME280;59781;52.090;5.030;2023-02-01T05:50:49;101806.84;;;6.11;84.05
71907;BME280;59781;52.090;5.030;2023-02-01T05:53:15;101812.19;;;6.22;83.34
71907;BME280;59781;52.090;5.030;2023-02-01T05:55:41;101801.72;;;6.19;83.41
71907;BME280;59781;52.090;5.030;2023-02-01T05:58:08;101801.84;;;6.18;83.21
71907;BME280;59781;52.090;5.030;2023-02-01T06:00:34;101801.94;;;6.05;84.41
71907;BME280;59781;52.090;5.030;2023-02-01T06:03:00;101802.81;;;6.06;84.35
71907;BME280;59781;52.090;5.030;2023-02-01T06:05:27;101807.44;;;6.26;83.62
71907;BME280;59781;52.090;5.030;2023-02-01T06:07:52;101806.72;;;6.13;84.24
71907;BME280;59781;52.090;5.030;2023-02-01T06:10:19;101799.78;;;6.10;84.16
71907;BME280;59781;52.090;5.030;2023-02-01T06:12:45;101808.75;;;6.09;84.44
71907;BME280;59781;52.090;5.030;2023-02-01T06:15:12;101799.78;;;6.10;84.32
71907;BME280;59781;52.090;5.030;2023-02-01T06:17:41;101812.31;;;6.10;84.41
71907;BME280;59781;52.090;5.030;2023-02-01T06:20:11;101807.28;;;6.05;84.66
71907;BME280;59781;52.090;5.030;2023-02-01T06:22:38;101818.13;;;6.15;84.40
71907;BME280;59781;52.090;5.030;2023-02-01T06:25:07;101807.31;;;6.27;83.86
71907;BME280;59781;52.090;5.030;2023-02-01T06:27:35;101826.56;;;6.21;84.45
71907;BME280;59781;52.090;5.030;2023-02-01T06:30:05;101817.91;;;6.29;83.45
71907;BME280;59781;52.090;5.030;2023-02-01T06:32:32;101811.56;;;6.19;84.12
71907;BME280;59781;52.090;5.030;2023-02-01T06:34:58;101817.53;;;6.11;84.37
71907;BME280;59781;52.090;5.030;2023-02-01T06:37:25;101818.03;;;6.27;84.00
71907;BME280;59781;52.090;5.030;2023-02-01T06:39:52;101811.22;;;6.12;84.91
71907;BME280;59781;52.090;5.030;2023-02-01T06:42:18;101816.44;;;6.14;85.52
71907;BME280;59781;52.090;5.030;2023-02-01T06:44:44;101823.75;;;6.23;85.71
71907;BME280;59781;52.090;5.030;2023-02-01T06:47:10;101810.72;;;6.18;84.97
71907;BME280;59781;52.090;5.030;2023-02-01T06:49:35;101809.88;;;6.29;84.73
71907;BME280;59781;52.090;5.030;2023-02-01T06:52:01;101809.53;;;6.22;85.29
71907;BME280;59781;52.090;5.030;2023-02-01T06:54:27;101822.06;;;6.22;85.28
71907;BME280;59781;52.090;5.030;2023-02-01T06:56:53;101815.59;;;6.24;85.31
71907;BME280;59781;52.090;5.030;2023-02-01T06:59:19;101818.28;;;6.24;85.14
71907;BME280;59781;52.090;5.030;2023-02-01T07:01:45;101807.69;;;6.23;84.84
71907;BME280;59781;52.090;5.030;2023-02-01T07:04:12;101817.81;;;6.30;84.30
71907;BME280;59781;52.090;5.030;2023-02-01T07:06:38;101827.88;;;6.38;84.21
71907;BME280;59781;52.090;5.030;2023-02-01T07:09:05;101827.16;;;6.36;84.17
71907;BME280;59781;52.090;5.030;2023-02-01T07:11:31;101821.94;;;6.46;83.09
71907;BME280;59781;52.090;5.030;2023-02-01T07:13:57;101834.47;;;6.45;83.09
71907;BME280;59781;52.090;5.030;2023-02-01T07:16:24;101824.97;;;6.30;83.67
71907;BME280;59781;52.090;5.030;2023-02-01T07:18:51;101823.66;;;6.47;83.00
71907;BME280;59781;52.090;5.030;2023-02-01T07:21:19;101821.47;;;6.52;83.16
71907;BME280;59781;52.090;5.030;2023-02-01T07:23:45;101826.22;;;6.59;82.61
71907;BME280;59781;52.090;5.030;2023-02-01T07:26:13;101821.34;;;6.53;82.30
71907;BME280;59781;52.090;5.030;2023-02-01T07:28:40;101825.00;;;6.41;83.13
71907;BME280;59781;52.090;5.030;2023-02-01T07:31:09;101819.53;;;6.54;82.78
71907;BME280;59781;52.090;5.030;2023-02-01T09:07:39;101808.38;;;8.11;77.71
71907;BME280;59781;52.090;5.030;2023-02-01T09:10:06;101802.41;;;8.07;77.23
71907;BME280;59781;52.090;5.030;2023-02-01T09:12:33;101797.97;;;8.38;76.10
71907;BME280;59781;52.090;5.030;2023-02-01T09:15:00;101788.59;;;8.12;77.67
71907;BME280;59781;52.090;5.030;2023-02-01T09:17:27;101790.22;;;8.45;76.47
71907;BME280;59781;52.090;5.030;2023-02-01T09:19:54;101800.66;;;8.38;74.80
71907;BME280;59781;52.090;5.030;2023-02-01T09:22:21;101784.03;;;8.02;76.53
71907;BME280;59781;52.090;5.030;2023-02-01T09:24:46;101786.63;;;7.72;78.63
71907;BME280;59781;52.090;5.030;2023-02-01T09:27:12;101799.31;;;7.70;78.83
71907;BME280;59781;52.090;5.030;2023-02-01T09:29:38;101794.00;;;7.59;79.43
71907;BME280;59781;52.090;5.030;2023-02-01T09:32:04;101795.38;;;7.53;79.74
71907;BME280;59781;52.090;5.030;2023-02-01T09:34:30;101818.72;;;7.62;79.53
71907;BME280;59781;52.090;5.030;2023-02-01T09:36:56;101805.28;;;7.41;79.81
71907;BME280;59781;52.090;5.030;2023-02-01T09:39:22;101800.06;;;7.40;80.51
71907;BME280;59781;52.090;5.030;2023-02-01T09:47:31;101813.75;;;7.58;79.87
71907;BME280;59781;52.090;5.030;2023-02-01T09:50:11;101809.75;;;7.52;79.75
71907;BME280;59781;52.090;5.030;2023-02-01T09:53:02;101802.63;;;7.62;79.46
71907;BME280;59781;52.090;5.030;2023-02-01T09:55:46;101808.91;;;7.52;79.23
71907;BME280;59781;52.090;5.030;2023-02-01T09:58:39;101801.63;;;7.42;79.29
71907;BME280;59781;52.090;5.030;2023-02-01T10:01:19;101810.53;;;7.32;79.45
71907;BME280;59781;52.090;5.030;2023-02-01T10:03:49;101806.25;;;7.40;79.58
71907;BME280;59781;52.090;5.030;2023-02-01T10:06:50;101807.53;;;7.14;82.31
71907;BME280;59781;52.090;5.030;2023-02-01T10:09:57;101804.88;;;7.03;84.62
71907;BME280;59781;52.090;5.030;2023-02-01T10:22:10;101818.53;;;6.77;87.44
71907;BME280;59781;52.090;5.030;2023-02-01T10:24:58;101810.13;;;6.93;85.76
71907;BME280;59781;52.090;5.030;2023-02-01T10:27:37;101806.31;;;7.07;85.18
71907;BME280;59781;52.090;5.030;2023-02-01T10:32:56;101810.31;;;7.24;83.94
71907;BME280;59781;52.090;5.030;2023-02-01T10:35:36;101803.34;;;7.32;83.88
71907;BME280;59781;52.090;5.030;2023-02-01T10:38:04;101813.72;;;7.26;83.10
71907;BME280;59781;52.090;5.030;2023-02-01T10:40:42;101799.88;;;7.21;84.02
71907;BME280;59781;52.090;5.030;2023-02-01T10:43:09;101799.66;;;7.44;82.34
71907;BME280;59781;52.090;5.030;2023-02-01T10:45:37;101792.06;;;7.29;82.80
71907;BME280;59781;52.090;5.030;2023-02-01T10:48:05;101808.97;;;7.29;82.94
71907;BME280;59781;52.090;5.030;2023-02-01T10:50:58;101799.91;;;7.41;81.16
71907;BME280;59781;52.090;5.030;2023-02-01T10:53:34;101810.91;;;7.38;81.82
71907;BME280;59781;52.090;5.030;2023-02-01T10:56:12;101814.94;;;7.33;81.22
71907;BME280;59781;52.090;5.030;2023-02-01T10:58:47;101792.09;;;7.50;80.75
71907;BME280;59781;52.090;5.030;2023-02-01T11:01:22;101807.78;;;7.54;81.29
71907;BME280;59781;52.090;5.030;2023-02-01T11:03:57;101783.44;;;7.57;80.79
71907;BME280;59781;52.090;5.030;2023-02-01T11:06:32;101804.78;;;7.47;82.74
71907;BME280;59781;52.090;5.030;2023-02-01T11:09:11;101794.34;;;7.33;83.41
71907;BME280;59781;52.090;5.030;2023-02-01T11:14:18;101782.19;;;7.29;84.56
71907;BME280;59781;52.090;5.030;2023-02-01T11:16:54;101792.59;;;7.00;87.89
71907;BME280;59781;52.090;5.030;2023-02-01T11:19:22;101794.66;;;6.97;88.37
71907;BME280;59781;52.090;5.030;2023-02-01T11:21:51;101782.13;;;7.08;87.97
71907;BME280;59781;52.090;5.030;2023-02-01T11:24:24;101785.34;;;7.23;86.98
71907;BME280;59781;52.090;5.030;2023-02-01T11:26:59;101776.81;;;7.29;86.06
71907;BME280;59781;52.090;5.030;2023-02-01T11:29:36;101790.63;;;7.45;84.54
71907;BME280;59781;52.090;5.030;2023-02-01T11:32:08;101788.91;;;7.76;83.76
71907;BME280;59781;52.090;5.030;2023-02-01T11:34:43;101783.09;;;7.71;83.86
71907;BME280;59781;52.090;5.030;2023-02-01T11:40:00;101788.06;;;7.76;82.77
71907;BME280;59781;52.090;5.030;2023-02-01T11:42:29;101794.81;;;7.91;82.07
71907;BME280;59781;52.090;5.030;2023-02-01T11:45:17;101772.50;;;7.70;82.60
71907;BME280;59781;52.090;5.030;2023-02-01T11:47:52;101776.97;;;7.81;81.60
71907;BME280;59781;52.090;5.030;2023-02-01T11:53:41;101781.47;;;7.59;82.85
71907;BME280;59781;52.090;5.030;2023-02-01T11:56:39;101770.19;;;7.65;82.93
71907;BME280;59781;52.090;5.030;2023-02-01T12:00:13;101767.09;;;7.81;81.66
71907;BME280;59781;52.090;5.030;2023-02-01T12:08:36;101746.31;;;8.04;80.46
71907;BME280;59781;52.090;5.030;2023-02-01T12:11:35;101755.00;;;7.87;80.16
71907;BME280;59781;52.090;5.030;2023-02-01T12:14:37;101741.66;;;7.96;79.99
71907;BME280;59781;52.090;5.030;2023-02-01T12:21:00;101747.09;;;8.16;78.65
71907;BME280;59781;52.090;5.030;2023-02-01T12:26:46;101734.78;;;8.13;78.23
71907;BME280;59781;52.090;5.030;2023-02-01T12:29:46;101756.41;;;8.12;78.67
71907;BME280;59781;52.090;5.030;2023-02-01T12:47:05;101736.72;;;8.32;77.82
71907;BME280;59781;52.090;5.030;2023-02-01T12:53:14;101731.66;;;8.59;77.54
71907;BME280;59781;52.090;5.030;2023-02-01T12:55:57;101736.53;;;8.45;77.60
71907;BME280;59781;52.090;5.030;2023-02-01T13:04:33;101757.56;;;8.80;76.75
71907;BME280;59781;52.090;5.030;2023-02-01T13:07:11;101750.16;;;8.62;77.71
71907;BME280;59781;52.090;5.030;2023-02-01T13:09:50;101756.19;;;8.55;77.88
71907;BME280;59781;52.090;5.030;2023-02-01T13:12:34;101733.59;;;8.48;77.54
71907;BME280;59781;52.090;5.030;2023-02-01T13:17:41;101748.03;;;8.56;78.49
71907;BME280;59781;52.090;5.030;2023-02-01T13:20:31;101746.56;;;8.43;78.55
71907;BME280;59781;52.090;5.030;2023-02-01T13:23:08;101740.66;;;8.49;78.69
71907;BME280;59781;52.090;5.030;2023-02-01T13:25:51;101751.22;;;8.41;78.39
71907;BME280;59781;52.090;5.030;2023-02-01T13:40:43;101756.13;;;8.36;78.91
71907;BME280;59781;52.090;5.030;2023-02-01T13:43:19;101741.00;;;8.14;79.31
71907;BME280;59781;52.090;5.030;2023-02-01T13:45:53;101737.63;;;8.12;79.86
71907;BME280;59781;52.090;5.030;2023-02-01T13:48:28;101750.19;;;8.11;80.58
71907;BME280;59781;52.090;5.030;2023-02-01T13:51:01;101745.84;;;8.20;80.05
71907;BME280;59781;52.090;5.030;2023-02-01T13:53:34;101744.47;;;8.25;80.96
71907;BME280;59781;52.090;5.030;2023-02-01T13:56:09;101758.81;;;8.36;79.71
71907;BME280;59781;52.090;5.030;2023-02-01T13:58:42;101753.56;;;8.13;80.66
71907;BME280;59781;52.090;5.030;2023-02-01T14:03:50;101756.91;;;8.05;80.76
71907;BME280;59781;52.090;5.030;2023-02-01T14:11:50;101750.72;;;8.05;81.02
71907;BME280;59781;52.090;5.030;2023-02-01T14:19:28;101760.06;;;8.11;80.88
71907;BME280;59781;52.090;5.030;2023-02-01T14:24:52;101756.03;;;8.16;81.34
71907;BME280;59781;52.090;5.030;2023-02-01T14:27:23;101757.16;;;8.23;80.44
71907;BME280;59781;52.090;5.030;2023-02-01T14:30:04;101757.97;;;8.14;81.95
71907;BME280;59781;52.090;5.030;2023-02-01T14:32:41;101750.91;;;8.13;81.49
71907;BME280;59781;52.090;5.030;2023-02-01T14:35:25;101753.19;;;8.18;81.08
71907;BME280;59781;52.090;5.030;2023-02-01T14:38:00;101749.97;;;8.24;81.09
71907;BME280;59781;52.090;5.030;2023-02-01T14:40:33;101760.41;;;8.17;81.33
71907;BME280;59781;52.090;5.030;2023-02-01T14:43:01;101744.97;;;8.10;82.26
71907;BME280;59781;52.090;5.030;2023-02-01T14:58:51;101767.22;;;8.00;83.34
71907;BME280;59781;52.090;5.030;2023-02-01T15:01:38;101761.06;;;8.10;83.26
71907;BME280;59781;52.090;5.030;2023-02-01T15:04:16;101770.94;;;8.09;82.53
71907;BME280;59781;52.090;5.030;2023-02-01T15:06:53;101768.84;;;8.13;83.06
71907;BME280;59781;52.090;5.030;2023-02-01T15:09:39;101774.34;;;8.11;82.97
71907;BME280;59781;52.090;5.030;2023-02-01T15:14:46;101773.63;;;8.09;83.47
71907;BME280;59781;52.090;5.030;2023-02-01T15:17:26;101783.09;;;8.13;82.91
71907;BME280;59781;52.090;5.030;2023-02-01T15:20:21;101773.75;;;8.08;83.48
71907;BME280;59781;52.090;5.030;2023-02-01T15:23:00;101785.91;;;8.12;83.21
71907;BME280;59781;52.090;5.030;2023-02-01T15:25:32;101774.81;;;8.16;83.33
71907;BME280;59781;52.090;5.030;2023-02-01T15:28:05;101780.81;;;8.09;83.52
71907;BME280;59781;52.090;5.030;2023-02-01T15:30:36;101785.34;;;8.08;83.76
71907;BME280;59781;52.090;5.030;2023-02-01T15:33:13;101794.38;;;8.07;83.39
71907;BME280;59781;52.090;5.030;2023-02-01T15:41:13;101793.31;;;7.98;83.85
71907;BME280;59781;52.090;5.030;2023-02-01T15:43:44;101803.91;;;8.21;83.19
71907;BME280;59781;52.090;5.030;2023-02-01T15:46:39;101803.91;;;8.00;83.85
71907;BME280;59781;52.090;5.030;2023-02-01T15:49:40;101799.53;;;8.20;83.51
71907;BME280;59781;52.090;5.030;2023-02-01T15:55:07;101798.22;;;7.93;83.89
71907;BME280;59781;52.090;5.030;2023-02-01T15:57:43;101799.00;;;7.84;83.83
71907;BME280;59781;52.090;5.030;2023-02-01T16:00:42;101810.91;;;7.91;83.83
71907;BME280;59781;52.090;5.030;2023-02-01T16:03:35;101805.06;;;7.86;84.53
71907;BME280;59781;52.090;5.030;2023-02-01T16:08:54;101795.38;;;7.74;84.51
71907;BME280;59781;52.090;5.030;2023-02-01T16:11:31;101794.63;;;7.83;83.86
71907;BME280;59781;52.090;5.030;2023-02-01T16:14:05;101806.72;;;7.98;83.83
71907;BME280;59781;52.090;5.030;2023-02-01T16:16:31;101804.97;;;7.88;83.82
71907;BME280;59781;52.090;5.030;2023-02-01T16:18:56;101807.44;;;8.00;83.45
71907;BME280;59781;52.090;5.030;2023-02-01T16:21:22;101814.56;;;8.11;82.70
71907;BME280;59781;52.090;5.030;2023-02-01T16:23:51;101806.66;;;8.10;82.59
71907;BME280;59781;52.090;5.030;2023-02-01T16:26:19;101804.25;;;8.07;83.32
71907;BME280;59781;52.090;5.030;2023-02-01T16:28:45;101810.63;;;8.15;82.63
71907;BME280;59781;52.090;5.030;2023-02-01T16:31:18;101804.94;;;8.29;81.87
71907;BME280;59781;52.090;5.030;2023-02-01T16:33:50;101819.22;;;8.09;83.37
71907;BME280;59781;52.090;5.030;2023-02-01T16:36:17;101810.69;;;8.25;82.29
71907;BME280;59781;52.090;5.030;2023-02-01T16:38:44;101815.75;;;8.18;83.04
71907;BME280;59781;52.090;5.030;2023-02-01T16:41:13;101817.03;;;8.24;82.55
71907;BME280;59781;52.090;5.030;2023-02-01T16:43:40;101825.22;;;8.22;82.92
71907;BME280;59781;52.090;5.030;2023-02-01T16:46:13;101833.75;;;8.27;82.85
71907;BME280;59781;52.090;5.030;2023-02-01T16:48:45;101835.41;;;8.19;83.31
71907;BME280;59781;52.090;5.030;2023-02-01T16:51:16;101839.06;;;8.18;83.38
71907;BME280;59781;52.090;5.030;2023-02-01T16:53:44;101832.66;;;8.09;84.29
71907;BME280;59781;52.090;5.030;2023-02-01T16:56:18;101845.34;;;8.07;84.38
71907;BME280;59781;52.090;5.030;2023-02-01T16:58:48;101843.56;;;8.17;83.95
71907;BME280;59781;52.090;5.030;2023-02-01T17:01:16;101851.81;;;8.25;83.71
71907;BME280;59781;52.090;5.030;2023-02-01T17:03:44;101858.75;;;8.28;83.91
71907;BME280;59781;52.090;5.030;2023-02-01T17:06:16;101856.00;;;8.18;84.01
71907;BME280;59781;52.090;5.030;2023-02-01T17:08:50;101860.53;;;8.18;84.22
71907;BME280;59781;52.090;5.030;2023-02-01T17:11:18;101857.50;;;8.11;84.83
71907;BME280;59781;52.090;5.030;2023-02-01T17:13:44;101855.75;;;8.21;84.37
71907;BME280;59781;52.090;5.030;2023-02-01T17:19:01;101864.69;;;8.11;85.30
71907;BME280;59781;52.090;5.030;2023-02-01T17:21:39;101862.38;;;8.17;84.62
71907;BME280;59781;52.090;5.030;2023-02-01T17:24:15;101861.25;;;8.20;84.60
71907;BME280;59781;52.090;5.030;2023-02-01T17:26:43;101866.03;;;8.16;84.64
71907;BME280;59781;52.090;5.030;2023-02-01T17:29:11;101865.16;;;8.16;84.79
71907;BME280;59781;52.090;5.030;2023-02-01T17:31:41;101860.53;;;8.18;85.25
71907;BME280;59781;52.090;5.030;2023-02-01T17:34:11;101863.09;;;8.40;83.67
71907;BME280;59781;52.090;5.030;2023-02-01T17:36:40;101868.09;;;8.33;84.01
71907;BME280;59781;52.090;5.030;2023-02-01T17:39:07;101866.81;;;8.28;84.56
71907;BME280;59781;52.090;5.030;2023-02-01T17:41:33;101876.84;;;8.26;84.61